sensor_id;sensor_type;location;lat;lon;timestamp;temperature;humidity
60242;SHT30;46103;52.076;113.488;2024-02-23T00:10:45;-15.47;50.78
60242;SHT30;46103;52.076;113.488;2024-02-23T00:19:47;-15.26;50.91
60242;SHT30;46103;52.076;113.488;2024-02-23T00:24:52;-15.03;52.02
60242;SHT30;46103;52.076;113.488;2024-02-23T00:29:26;-14.91;50.75
60242;SHT30;46103;52.076;113.488;2024-02-23T00:37:53;-14.68;49.93
60242;SHT30;46103;52.076;113.488;2024-02-23T00:43:08;-14.57;49.43
60242;SHT30;46103;52.076;113.488;2024-02-23T01:02:43;-13.81;47.71
60242;SHT30;46103;52.076;113.488;2024-02-23T01:05:47;-13.74;46.80
60242;SHT30;46103;52.076;113.488;2024-02-23T01:08:51;-13.63;46.59
60242;SHT30;46103;52.076;113.488;2024-02-23T01:19:03;-13.42;46.06
60242;SHT30;46103;52.076;113.488;2024-02-23T01:25:51;-13.23;45.42
60242;SHT30;46103;52.076;113.488;2024-02-23T01:28:55;-13.08;45.39
60242;SHT30;46103;52.076;113.488;2024-02-23T01:32:00;-12.98;45.42
60242;SHT30;46103;52.076;113.488;2024-02-23T01:35:04;-12.89;45.36
60242;SHT30;46103;52.076;113.488;2024-02-23T01:38:08;-12.78;45.32
60242;SHT30;46103;52.076;113.488;2024-02-23T01:41:12;-12.71;45.05
60242;SHT30;46103;52.076;113.488;2024-02-23T01:44:17;-12.75;44.93
60242;SHT30;46103;52.076;113.488;2024-02-23T01:47:20;-12.81;45.07
60242;SHT30;46103;52.076;113.488;2024-02-23T01:50:25;-12.83;45.32
60242;SHT30;46103;52.076;113.488;2024-02-23T01:53:30;-12.77;45.19
60242;SHT30;46103;52.076;113.488;2024-02-23T01:56:35;-12.77;45.14
60242;SHT30;46103;52.076;113.488;2024-02-23T01:59:40;-12.80;44.91
60242;SHT30;46103;52.076;113.488;2024-02-23T02:02:45;-12.60;44.25
60242;SHT30;46103;52.076;113.488;2024-02-23T02:06:22;-12.43;43.96
60242;SHT30;46103;52.076;113.488;2024-02-23T02:14:37;-12.70;45.19
60242;SHT30;46103;52.076;113.488;2024-02-23T02:18:04;-12.59;45.06
60242;SHT30;46103;52.076;113.488;2024-02-23T02:21:09;-12.73;45.30
60242;SHT30;46103;52.076;113.488;2024-02-23T02:24:13;-12.73;45.11
60242;SHT30;46103;52.076;113.488;2024-02-23T02:27:20;-12.36;44.79
60242;SHT30;46103;52.076;113.488;2024-02-23T02:30:25;-12.60;44.62
60242;SHT30;46103;52.076;113.488;2024-02-23T02:33:31;-12.26;44.91
60242;SHT30;46103;52.076;113.488;2024-02-23T02:36:35;-12.28;44.18
60242;SHT30;46103;52.076;113.488;2024-02-23T02:39:38;-11.87;44.64
60242;SHT30;46103;52.076;113.488;2024-02-23T02:42:42;-11.59;43.65
60242;SHT30;46103;52.076;113.488;2024-02-23T02:45:55;-11.77;42.71
60242;SHT30;46103;52.076;113.488;2024-02-23T02:49:00;-11.46;42.95
60242;SHT30;46103;52.076;113.488;2024-02-23T02:52:03;-11.21;42.56
60242;SHT30;46103;52.076;113.488;2024-02-23T02:55:07;-11.25;42.51
60242;SHT30;46103;52.076;113.488;2024-02-23T02:58:14;-10.97;42.35
60242;SHT30;46103;52.076;113.488;2024-02-23T03:01:17;-10.71;41.82
60242;SHT30;46103;52.076;113.488;2024-02-23T03:04:21;-10.73;41.66
60242;SHT30;46103;52.076;113.488;2024-02-23T03:07:25;-10.47;41.85
60242;SHT30;46103;52.076;113.488;2024-02-23T03:10:29;-10.22;42.02
60242;SHT30;46103;52.076;113.488;2024-02-23T03:13:32;-9.98;41.42
60242;SHT30;46103;52.076;113.488;2024-02-23T03:16:36;-9.74;41.41
60242;SHT30;46103;52.076;113.488;2024-02-23T03:19:41;-9.47;40.82
60242;SHT30;46103;52.076;113.488;2024-02-23T03:22:44;-9.28;40.45
60242;SHT30;46103;52.076;113.488;2024-02-23T03:25:49;-9.05;39.95
60242;SHT30;46103;52.076;113.488;2024-02-23T03:32:23;-8.63;39.31
60242;SHT30;46103;52.076;113.488;2024-02-23T03:35:29;-8.56;38.96
60242;SHT30;46103;52.076;113.488;2024-02-23T03:38:34;-8.39;38.94
60242;SHT30;46103;52.076;113.488;2024-02-23T03:41:39;-8.33;38.77
60242;SHT30;46103;52.076;113.488;2024-02-23T03:44:42;-8.40;39.37
60242;SHT30;46103;52.076;113.488;2024-02-23T03:47:45;-8.26;39.33
60242;SHT30;46103;52.076;113.488;2024-02-23T03:50:50;-8.50;40.17
60242;SHT30;46103;52.076;113.488;2024-02-23T03:57:17;-8.90;39.45
60242;SHT30;46103;52.076;113.488;2024-02-23T04:00:31;-8.56;40.00
60242;SHT30;46103;52.076;113.488;2024-02-23T04:03:59;-8.38;39.31
60242;SHT30;46103;52.076;113.488;2024-02-23T04:07:03;-8.28;39.61
60242;SHT30;46103;52.076;113.488;2024-02-23T04:10:08;-8.36;40.04
60242;SHT30;46103;52.076;113.488;2024-02-23T04:13:12;-8.21;40.63
60242;SHT30;46103;52.076;113.488;2024-02-23T04:16:24;-8.14;40.73
60242;SHT30;46103;52.076;113.488;2024-02-23T04:19:30;-7.90;40.69
60242;SHT30;46103;52.076;113.488;2024-02-23T04:22:34;-7.54;40.24
60242;SHT30;46103;52.076;113.488;2024-02-23T04:25:41;-7.22;39.63
60242;SHT30;46103;52.076;113.488;2024-02-23T04:28:46;-7.04;39.35
60242;SHT30;46103;52.076;113.488;2024-02-23T04:31:51;-7.36;39.48
60242;SHT30;46103;52.076;113.488;2024-02-23T04:35:09;-7.05;40.24
60242;SHT30;46103;52.076;113.488;2024-02-23T04:38:13;-6.97;39.75
60242;SHT30;46103;52.076;113.488;2024-02-23T04:41:20;-6.94;39.85
60242;SHT30;46103;52.076;113.488;2024-02-23T04:44:24;-6.73;40.30
60242;SHT30;46103;52.076;113.488;2024-02-23T04:47:27;-6.53;39.64
60242;SHT30;46103;52.076;113.488;2024-02-23T04:50:30;-6.46;39.65
60242;SHT30;46103;52.076;113.488;2024-02-23T04:53:38;-6.42;39.55
60242;SHT30;46103;52.076;113.488;2024-02-23T04:56:42;-6.09;39.36
60242;SHT30;46103;52.076;113.488;2024-02-23T04:59:46;-5.76;38.69
60242;SHT30;46103;52.076;113.488;2024-02-23T05:02:50;-5.38;38.48
60242;SHT30;46103;52.076;113.488;2024-02-23T05:05:52;-4.80;37.87
60242;SHT30;46103;52.076;113.488;2024-02-23T05:09:43;-4.29;35.15
60242;SHT30;46103;52.076;113.488;2024-02-23T05:12:47;-4.38;34.37
60242;SHT30;46103;52.076;113.488;2024-02-23T05:25:38;-4.25;34.14
60242;SHT30;46103;52.076;113.488;2024-02-23T05:28:59;-4.50;33.56
60242;SHT30;46103;52.076;113.488;2024-02-23T05:36:32;-5.16;34.80
60242;SHT30;46103;52.076;113.488;2024-02-23T05:46:04;-4.81;36.33
60242;SHT30;46103;52.076;113.488;2024-02-23T05:49:08;-4.48;35.23
60242;SHT30;46103;52.076;113.488;2024-02-23T05:52:12;-4.00;35.26
60242;SHT30;46103;52.076;113.488;2024-02-23T05:55:19;-3.91;35.25
60242;SHT30;46103;52.076;113.488;2024-02-23T06:01:56;-4.19;35.06
60242;SHT30;46103;52.076;113.488;2024-02-23T06:05:31;-4.32;35.15
60242;SHT30;46103;52.076;113.488;2024-02-23T06:08:36;-3.98;35.71
60242;SHT30;46103;52.076;113.488;2024-02-23T06:11:57;-3.76;35.14
60242;SHT30;46103;52.076;113.488;2024-02-23T06:15:36;-3.45;35.31
60242;SHT30;46103;52.076;113.488;2024-02-23T06:19:44;-3.21;33.81
60242;SHT30;46103;52.076;113.488;2024-02-23T06:23:49;-3.01;34.19
60242;SHT30;46103;52.076;113.488;2024-02-23T06:27:46;-2.83;33.09
60242;SHT30;46103;52.076;113.488;2024-02-23T06:30:51;-2.98;33.62
60242;SHT30;46103;52.076;113.488;2024-02-23T06:34:01;-3.01;33.67
60242;SHT30;46103;52.076;113.488;2024-02-23T06:38:00;-2.88;33.26
60242;SHT30;46103;52.076;113.488;2024-02-23T06:41:20;-2.72;33.98
60242;SHT30;46103;52.076;113.488;2024-02-23T06:44:30;-2.79;33.34
60242;SHT30;46103;52.076;113.488;2024-02-23T06:47:47;-2.81;33.54
60242;SHT30;46103;52.076;113.488;2024-02-23T06:51:05;-2.76;34.43
60242;SHT30;46103;52.076;113.488;2024-02-23T06:54:26;-2.48;33.73
60242;SHT30;46103;52.076;113.488;2024-02-23T06:57:50;-3.04;34.28
60242;SHT30;46103;52.076;113.488;2024-02-23T07:01:27;-3.05;34.79
60242;SHT30;46103;52.076;113.488;2024-02-23T07:05:09;-3.14;35.28
60242;SHT30;46103;52.076;113.488;2024-02-23T07:08:26;-2.83;35.31
60242;SHT30;46103;52.076;113.488;2024-02-23T07:11:40;-2.42;34.60
60242;SHT30;46103;52.076;113.488;2024-02-23T07:15:20;-2.76;34.88
60242;SHT30;46103;52.076;113.488;2024-02-23T07:18:33;-2.39;34.73
60242;SHT30;46103;52.076;113.488;2024-02-23T07:21:36;-2.57;34.32
60242;SHT30;46103;52.076;113.488;2024-02-23T07:24:45;-2.38;35.03
60242;SHT30;46103;52.076;113.488;2024-02-23T07:27:49;-2.32;34.84
60242;SHT30;46103;52.076;113.488;2024-02-23T07:30:55;-2.11;35.13
60242;SHT30;46103;52.076;113.488;2024-02-23T07:34:00;-2.38;35.37
60242;SHT30;46103;52.076;113.488;2024-02-23T07:37:03;-2.21;34.77
60242;SHT30;46103;52.076;113.488;2024-02-23T07:40:08;-1.77;34.63
60242;SHT30;46103;52.076;113.488;2024-02-23T07:43:12;-1.43;34.56
60242;SHT30;46103;52.076;113.488;2024-02-23T07:46:16;-1.11;34.34
60242;SHT30;46103;52.076;113.488;2024-02-23T07:49:20;-0.95;34.22
60242;SHT30;46103;52.076;113.488;2024-02-23T07:52:25;-0.77;33.69
60242;SHT30;46103;52.076;113.488;2024-02-23T07:55:29;-0.70;33.25
60242;SHT30;46103;52.076;113.488;2024-02-23T07:58:32;-0.52;32.98
60242;SHT30;46103;52.076;113.488;2024-02-23T08:01:36;-0.49;33.03
60242;SHT30;46103;52.076;113.488;2024-02-23T08:04:41;-0.55;33.33
60242;SHT30;46103;52.076;113.488;2024-02-23T08:07:45;-0.46;33.42
60242;SHT30;46103;52.076;113.488;2024-02-23T08:10:50;-0.45;33.07
60242;SHT30;46103;52.076;113.488;2024-02-23T08:13:54;-0.38;33.15
60242;SHT30;46103;52.076;113.488;2024-02-23T08:17:42;-0.23;33.26
60242;SHT30;46103;52.076;113.488;2024-02-23T08:20:51;-0.04;33.70
60242;SHT30;46103;52.076;113.488;2024-02-23T08:23:57;0.23;33.24
60242;SHT30;46103;52.076;113.488;2024-02-23T08:27:03;0.54;33.06
60242;SHT30;46103;52.076;113.488;2024-02-23T08:30:09;0.71;33.03
60242;SHT30;46103;52.076;113.488;2024-02-23T08:33:14;0.86;33.03
60242;SHT30;46103;52.076;113.488;2024-02-23T08:36:20;0.88;32.92
60242;SHT30;46103;52.076;113.488;2024-02-23T08:39:25;0.84;32.90
60242;SHT30;46103;52.076;113.488;2024-02-23T08:42:33;0.82;33.14
60242;SHT30;46103;52.076;113.488;2024-02-23T08:45:37;0.88;32.85
60242;SHT30;46103;52.076;113.488;2024-02-23T08:48:42;0.97;32.56
60242;SHT30;46103;52.076;113.488;2024-02-23T08:51:48;0.97;32.72
60242;SHT30;46103;52.076;113.488;2024-02-23T08:54:54;0.89;32.75
60242;SHT30;46103;52.076;113.488;2024-02-23T08:58:00;0.74;33.03
60242;SHT30;46103;52.076;113.488;2024-02-23T09:01:06;0.68;33.41
60242;SHT30;46103;52.076;113.488;2024-02-23T09:04:13;0.55;33.66
60242;SHT30;46103;52.076;113.488;2024-02-23T09:07:19;0.38;33.98
60242;SHT30;46103;52.076;113.488;2024-02-23T09:10:25;0.17;34.44
60242;SHT30;46103;52.076;113.488;2024-02-23T09:13:31;-0.08;34.83
60242;SHT30;46103;52.076;113.488;2024-02-23T09:16:35;-0.43;35.12
60242;SHT30;46103;52.076;113.488;2024-02-23T09:19:42;-0.73;35.60
60242;SHT30;46103;52.076;113.488;2024-02-23T09:22:45;-1.01;36.21
60242;SHT30;46103;52.076;113.488;2024-02-23T09:25:49;-1.35;36.87
60242;SHT30;46103;52.076;113.488;2024-02-23T09:28:55;-1.69;37.66
60242;SHT30;46103;52.076;113.488;2024-02-23T09:32:03;-2.04;38.33
60242;SHT30;46103;52.076;113.488;2024-02-23T09:35:08;-2.50;39.11
60242;SHT30;46103;52.076;113.488;2024-02-23T09:38:13;-3.05;39.84
60242;SHT30;46103;52.076;113.488;2024-02-23T09:41:21;-3.41;40.95
60242;SHT30;46103;52.076;113.488;2024-02-23T09:44:57;-3.64;41.64
60242;SHT30;46103;52.076;113.488;2024-02-23T09:48:03;-3.87;41.98
60242;SHT30;46103;52.076;113.488;2024-02-23T09:51:07;-4.07;42.45
60242;SHT30;46103;52.076;113.488;2024-02-23T09:54:16;-4.35;43.04
60242;SHT30;46103;52.076;113.488;2024-02-23T09:57:22;-4.74;44.17
60242;SHT30;46103;52.076;113.488;2024-02-23T10:00:28;-4.91;44.66
60242;SHT30;46103;52.076;113.488;2024-02-23T10:03:33;-5.11;44.98
60242;SHT30;46103;52.076;113.488;2024-02-23T10:06:40;-5.22;45.41
60242;SHT30;46103;52.076;113.488;2024-02-23T10:09:46;-5.38;45.86
60242;SHT30;46103;52.076;113.488;2024-02-23T10:12:51;-5.50;46.29
60242;SHT30;46103;52.076;113.488;2024-02-23T10:16:05;-5.70;46.45
60242;SHT30;46103;52.076;113.488;2024-02-23T10:27:49;-6.19;46.88
60242;SHT30;46103;52.076;113.488;2024-02-23T10:30:56;-6.29;47.07
60242;SHT30;46103;52.076;113.488;2024-02-23T10:34:06;-6.43;47.12
60242;SHT30;46103;52.076;113.488;2024-02-23T10:37:14;-6.50;47.27
60242;SHT30;46103;52.076;113.488;2024-02-23T10:40:25;-6.57;47.48
60242;SHT30;46103;52.076;113.488;2024-02-23T10:43:48;-6.62;47.75
60242;SHT30;46103;52.076;113.488;2024-02-23T10:47:50;-6.69;48.18
60242;SHT30;46103;52.076;113.488;2024-02-23T10:50:57;-6.73;48.48
60242;SHT30;46103;52.076;113.488;2024-02-23T10:54:06;-6.76;48.69
60242;SHT30;46103;52.076;113.488;2024-02-23T10:57:13;-6.83;48.38
60242;SHT30;46103;52.076;113.488;2024-02-23T11:00:21;-6.90;48.24
60242;SHT30;46103;52.076;113.488;2024-02-23T11:03:29;-7.07;48.49
60242;SHT30;46103;52.076;113.488;2024-02-23T11:06:35;-7.21;49.00
60242;SHT30;46103;52.076;113.488;2024-02-23T11:09:49;-7.15;49.32
60242;SHT30;46103;52.076;113.488;2024-02-23T11:12:58;-7.18;49.29
60242;SHT30;46103;52.076;113.488;2024-02-23T11:16:05;-7.14;48.73
60242;SHT30;46103;52.076;113.488;2024-02-23T11:19:10;-7.16;48.42
60242;SHT30;46103;52.076;113.488;2024-02-23T11:22:31;-7.23;48.27
60242;SHT30;46103;52.076;113.488;2024-02-23T11:25:41;-7.21;48.29
60242;SHT30;46103;52.076;113.488;2024-02-23T11:28:50;-7.19;46.69
60242;SHT30;46103;52.076;113.488;2024-02-23T11:32:00;-7.26;45.59
60242;SHT30;46103;52.076;113.488;2024-02-23T11:35:12;-7.39;46.70
60242;SHT30;46103;52.076;113.488;2024-02-23T11:38:17;-7.64;45.48
60242;SHT30;46103;52.076;113.488;2024-02-23T11:41:27;-7.83;45.82
60242;SHT30;46103;52.076;113.488;2024-02-23T11:44:34;-7.95;45.86
60242;SHT30;46103;52.076;113.488;2024-02-23T11:47:39;-8.05;44.75
60242;SHT30;46103;52.076;113.488;2024-02-23T11:50:44;-8.07;44.05
60242;SHT30;46103;52.076;113.488;2024-02-23T11:54:15;-8.11;43.95
60242;SHT30;46103;52.076;113.488;2024-02-23T11:57:24;-8.29;45.16
60242;SHT30;46103;52.076;113.488;2024-02-23T12:00:33;-8.42;45.93
60242;SHT30;46103;52.076;113.488;2024-02-23T12:04:23;-8.47;45.84
60242;SHT30;46103;52.076;113.488;2024-02-23T12:07:32;-8.60;44.42
60242;SHT30;46103;52.076;113.488;2024-02-23T12:11:02;-8.61;45.55
60242;SHT30;46103;52.076;113.488;2024-02-23T12:14:10;-8.66;45.77
60242;SHT30;46103;52.076;113.488;2024-02-23T12:17:15;-8.80;46.49
60242;SHT30;46103;52.076;113.488;2024-02-23T12:20:24;-8.83;47.28
60242;SHT30;46103;52.076;113.488;2024-02-23T12:23:48;-8.93;48.04
60242;SHT30;46103;52.076;113.488;2024-02-23T12:26:59;-9.01;48.51
60242;SHT30;46103;52.076;113.488;2024-02-23T12:30:45;-9.15;50.65
60242;SHT30;46103;52.076;113.488;2024-02-23T12:34:34;-9.19;50.94
60242;SHT30;46103;52.076;113.488;2024-02-23T12:38:26;-9.35;51.55
60242;SHT30;46103;52.076;113.488;2024-02-23T12:42:21;-9.44;51.52
60242;SHT30;46103;52.076;113.488;2024-02-23T12:46:21;-9.59;52.19
60242;SHT30;46103;52.076;113.488;2024-02-23T12:50:47;-9.74;52.14
60242;SHT30;46103;52.076;113.488;2024-02-23T12:55:17;-9.82;51.39
60242;SHT30;46103;52.076;113.488;2024-02-23T12:59:31;-9.80;50.17
60242;SHT30;46103;52.076;113.488;2024-02-23T13:07:35;-9.80;50.76
60242;SHT30;46103;52.076;113.488;2024-02-23T13:11:01;-9.91;50.60
60242;SHT30;46103;52.076;113.488;2024-02-23T13:14:26;-9.95;50.64
60242;SHT30;46103;52.076;113.488;2024-02-23T13:18:52;-9.85;51.40
60242;SHT30;46103;52.076;113.488;2024-02-23T13:22:59;-9.81;50.66
60242;SHT30;46103;52.076;113.488;2024-02-23T13:41:38;-9.82;51.42
60242;SHT30;46103;52.076;113.488;2024-02-23T13:45:50;-9.88;51.37
60242;SHT30;46103;52.076;113.488;2024-02-23T13:50:43;-9.93;52.16
60242;SHT30;46103;52.076;113.488;2024-02-23T13:54:38;-9.93;52.53
60242;SHT30;46103;52.076;113.488;2024-02-23T13:58:21;-9.97;52.58
60242;SHT30;46103;52.076;113.488;2024-02-23T14:02:27;-10.01;52.55
60242;SHT30;46103;52.076;113.488;2024-02-23T14:06:22;-10.08;52.63
60242;SHT30;46103;52.076;113.488;2024-02-23T14:10:12;-10.12;52.64
60242;SHT30;46103;52.076;113.488;2024-02-23T14:21:23;-10.42;54.04
60242;SHT30;46103;52.076;113.488;2024-02-23T14:29:36;-10.36;54.51
60242;SHT30;46103;52.076;113.488;2024-02-23T16:00:31;-12.12;56.04
60242;SHT30;46103;52.076;113.488;2024-02-23T16:03:37;-12.16;56.18
60242;SHT30;46103;52.076;113.488;2024-02-23T16:06:43;-12.24;56.28
60242;SHT30;46103;52.076;113.488;2024-02-23T16:09:51;-12.24;56.11
60242;SHT30;46103;52.076;113.488;2024-02-23T16:12:57;-12.26;55.83
60242;SHT30;46103;52.076;113.488;2024-02-23T16:16:07;-12.37;55.89
60242;SHT30;46103;52.076;113.488;2024-02-23T16:19:12;-12.43;56.26
60242;SHT30;46103;52.076;113.488;2024-02-23T16:22:17;-12.49;56.45
60242;SHT30;46103;52.076;113.488;2024-02-23T16:25:22;-12.50;56.55
60242;SHT30;46103;52.076;113.488;2024-02-23T16:28:27;-12.54;56.51
60242;SHT30;46103;52.076;113.488;2024-02-23T16:31:36;-12.57;56.47
60242;SHT30;46103;52.076;113.488;2024-02-23T16:34:40;-12.67;56.57
60242;SHT30;46103;52.076;113.488;2024-02-23T16:37:50;-12.78;56.79
60242;SHT30;46103;52.076;113.488;2024-02-23T16:40:54;-12.83;57.04
60242;SHT30;46103;52.076;113.488;2024-02-23T16:44:01;-12.92;57.33
60242;SHT30;46103;52.076;113.488;2024-02-23T16:47:06;-12.89;57.27
60242;SHT30;46103;52.076;113.488;2024-02-23T16:50:11;-13.06;57.46
60242;SHT30;46103;52.076;113.488;2024-02-23T16:53:18;-13.05;57.73
60242;SHT30;46103;52.076;113.488;2024-02-23T16:56:23;-13.11;57.54
60242;SHT30;46103;52.076;113.488;2024-02-23T16:59:30;-13.19;57.73
60242;SHT30;46103;52.076;113.488;2024-02-23T17:02:35;-13.22;57.78
60242;SHT30;46103;52.076;113.488;2024-02-23T17:05:41;-13.25;57.84
60242;SHT30;46103;52.076;113.488;2024-02-23T17:08:45;-13.25;57.91
60242;SHT30;46103;52.076;113.488;2024-02-23T17:11:52;-13.25;58.00
60242;SHT30;46103;52.076;113.488;2024-02-23T17:14:57;-13.22;58.02
60242;SHT30;46103;52.076;113.488;2024-02-23T17:18:02;-13.18;57.81
60242;SHT30;46103;52.076;113.488;2024-02-23T17:21:08;-13.12;57.65
60242;SHT30;46103;52.076;113.488;2024-02-23T17:24:12;-13.08;57.50
60242;SHT30;46103;52.076;113.488;2024-02-23T17:27:17;-13.06;57.38
60242;SHT30;46103;52.076;113.488;2024-02-23T17:30:25;-13.12;57.54
60242;SHT30;46103;52.076;113.488;2024-02-23T17:33:30;-13.15;57.65
60242;SHT30;46103;52.076;113.488;2024-02-23T17:36:36;-13.15;57.76
60242;SHT30;46103;52.076;113.488;2024-02-23T17:39:47;-13.18;57.84
60242;SHT30;46103;52.076;113.488;2024-02-23T17:42:51;-13.19;57.92
60242;SHT30;46103;52.076;113.488;2024-02-23T17:45:57;-13.27;58.02
60242;SHT30;46103;52.076;113.488;2024-02-23T17:49:03;-13.27;58.08
60242;SHT30;46103;52.076;113.488;2024-02-23T17:52:09;-13.30;58.06
60242;SHT30;46103;52.076;113.488;2024-02-23T17:55:13;-13.33;58.21
60242;SHT30;46103;52.076;113.488;2024-02-23T17:58:18;-13.43;58.43
60242;SHT30;46103;52.076;113.488;2024-02-23T18:01:23;-13.55;58.78
60242;SHT30;46103;52.076;113.488;2024-02-23T18:04:27;-13.61;59.05
60242;SHT30;46103;52.076;113.488;2024-02-23T18:07:32;-13.67;59.29
60242;SHT30;46103;52.076;113.488;2024-02-23T18:10:37;-13.63;59.25
60242;SHT30;46103;52.076;113.488;2024-02-23T18:13:42;-13.68;59.25
60242;SHT30;46103;52.076;113.488;2024-02-23T18:16:47;-13.75;59.55
60242;SHT30;46103;52.076;113.488;2024-02-23T18:19:54;-13.77;59.69
60242;SHT30;46103;52.076;113.488;2024-02-23T18:22:58;-13.79;59.77
60242;SHT30;46103;52.076;113.488;2024-02-23T18:26:03;-13.88;59.76
60242;SHT30;46103;52.076;113.488;2024-02-23T18:29:08;-13.99;60.09
60242;SHT30;46103;52.076;113.488;2024-02-23T18:32:13;-14.15;60.31
60242;SHT30;46103;52.076;113.488;2024-02-23T18:35:17;-14.29;60.67
60242;SHT30;46103;52.076;113.488;2024-02-23T18:38:22;-14.29;60.83
60242;SHT30;46103;52.076;113.488;2024-02-23T18:41:26;-14.39;60.72
60242;SHT30;46103;52.076;113.488;2024-02-23T18:44:32;-14.50;60.94
60242;SHT30;46103;52.076;113.488;2024-02-23T18:47:38;-14.47;60.91
60242;SHT30;46103;52.076;113.488;2024-02-23T18:50:43;-14.57;60.71
60242;SHT30;46103;52.076;113.488;2024-02-23T18:53:48;-14.69;60.78
60242;SHT30;46103;52.076;113.488;2024-02-23T18:56:53;-14.74;61.08
60242;SHT30;46103;52.076;113.488;2024-02-23T18:59:57;-14.78;61.05
60242;SHT30;46103;52.076;113.488;2024-02-23T19:03:00;-14.79;60.82
60242;SHT30;46103;52.076;113.488;2024-02-23T19:06:06;-14.85;60.86
60242;SHT30;46103;52.076;113.488;2024-02-23T19:09:10;-14.86;60.84
60242;SHT30;46103;52.076;113.488;2024-02-23T19:12:15;-15.03;60.78
60242;SHT30;46103;52.076;113.488;2024-02-23T19:15:19;-15.15;61.08
60242;SHT30;46103;52.076;113.488;2024-02-23T19:18:24;-15.30;61.74
60242;SHT30;46103;52.076;113.488;2024-02-23T19:21:28;-15.30;61.93
60242;SHT30;46103;52.076;113.488;2024-02-23T19:24:33;-15.20;62.05
60242;SHT30;46103;52.076;113.488;2024-02-23T19:27:38;-15.12;61.79
60242;SHT30;46103;52.076;113.488;2024-02-23T19:30:42;-15.12;61.38
60242;SHT30;46103;52.076;113.488;2024-02-23T19:33:50;-15.07;61.27
60242;SHT30;46103;52.076;113.488;2024-02-23T19:36:54;-15.19;61.38
60242;SHT30;46103;52.076;113.488;2024-02-23T19:39:58;-15.27;61.42
60242;SHT30;46103;52.076;113.488;2024-02-23T19:43:03;-15.45;61.73
60242;SHT30;46103;52.076;113.488;2024-02-23T19:46:08;-15.61;62.09
60242;SHT30;46103;52.076;113.488;2024-02-23T19:49:21;-15.72;62.05
60242;SHT30;46103;52.076;113.488;2024-02-23T19:52:24;-15.78;62.21
60242;SHT30;46103;52.076;113.488;2024-02-23T19:55:30;-15.90;62.44
60242;SHT30;46103;52.076;113.488;2024-02-23T19:58:34;-16.04;62.89
60242;SHT30;46103;52.076;113.488;2024-02-23T20:01:38;-16.20;63.32
60242;SHT30;46103;52.076;113.488;2024-02-23T20:04:43;-16.18;63.58
60242;SHT30;46103;52.076;113.488;2024-02-23T20:07:47;-16.24;63.78
60242;SHT30;46103;52.076;113.488;2024-02-23T20:10:51;-16.21;63.81
60242;SHT30;46103;52.076;113.488;2024-02-23T20:13:56;-16.21;63.68
60242;SHT30;46103;52.076;113.488;2024-02-23T20:17:01;-16.16;63.57
60242;SHT30;46103;52.076;113.488;2024-02-23T20:20:07;-16.17;63.44
60242;SHT30;46103;52.076;113.488;2024-02-23T20:23:11;-16.20;63.42
60242;SHT30;46103;52.076;113.488;2024-02-23T20:26:15;-16.20;63.47
60242;SHT30;46103;52.076;113.488;2024-02-23T20:29:19;-16.24;63.27
60242;SHT30;46103;52.076;113.488;2024-02-23T20:32:27;-16.31;63.38
60242;SHT30;46103;52.076;113.488;2024-02-23T20:35:32;-16.46;63.62
60242;SHT30;46103;52.076;113.488;2024-02-23T20:38:36;-16.58;63.77
60242;SHT30;46103;52.076;113.488;2024-02-23T20:41:40;-16.62;63.98
60242;SHT30;46103;52.076;113.488;2024-02-23T20:44:48;-16.68;64.14
60242;SHT30;46103;52.076;113.488;2024-02-23T20:47:52;-16.72;64.17
60242;SHT30;46103;52.076;113.488;2024-02-23T20:50:57;-16.80;64.29
60242;SHT30;46103;52.076;113.488;2024-02-23T20:54:02;-16.83;64.40
60242;SHT30;46103;52.076;113.488;2024-02-23T20:57:08;-16.92;64.38
60242;SHT30;46103;52.076;113.488;2024-02-23T21:00:12;-16.93;64.62
60242;SHT30;46103;52.076;113.488;2024-02-23T21:03:17;-17.00;64.64
60242;SHT30;46103;52.076;113.488;2024-02-23T21:06:24;-17.00;64.74
60242;SHT30;46103;52.076;113.488;2024-02-23T21:09:28;-16.95;64.63
60242;SHT30;46103;52.076;113.488;2024-02-23T21:12:32;-16.89;64.45
60242;SHT30;46103;52.076;113.488;2024-02-23T21:15:40;-16.82;64.31
60242;SHT30;46103;52.076;113.488;2024-02-23T21:18:44;-16.85;64.13
60242;SHT30;46103;52.076;113.488;2024-02-23T21:21:48;-16.86;63.90
60242;SHT30;46103;52.076;113.488;2024-02-23T21:24:52;-16.88;63.98
60242;SHT30;46103;52.076;113.488;2024-02-23T21:27:56;-16.86;63.98
60242;SHT30;46103;52.076;113.488;2024-02-23T21:31:00;-16.79;64.08
60242;SHT30;46103;52.076;113.488;2024-02-23T21:34:07;-16.69;63.69
60242;SHT30;46103;52.076;113.488;2024-02-23T21:37:12;-16.62;63.49
60242;SHT30;46103;52.076;113.488;2024-02-23T21:40:20;-16.53;63.23
60242;SHT30;46103;52.076;113.488;2024-02-23T21:43:25;-16.45;62.77
60242;SHT30;46103;52.076;113.488;2024-02-23T21:46:28;-16.40;62.25
60242;SHT30;46103;52.076;113.488;2024-02-23T21:49:32;-16.58;61.77
60242;SHT30;46103;52.076;113.488;2024-02-23T21:52:36;-16.79;61.55
60242;SHT30;46103;52.076;113.488;2024-02-23T21:55:40;-17.02;61.78
60242;SHT30;46103;52.076;113.488;2024-02-23T21:58:44;-17.07;62.20
60242;SHT30;46103;52.076;113.488;2024-02-23T22:01:48;-17.17;62.32
60242;SHT30;46103;52.076;113.488;2024-02-23T22:04:56;-17.26;62.47
60242;SHT30;46103;52.076;113.488;2024-02-23T22:08:00;-17.31;62.74
60242;SHT30;46103;52.076;113.488;2024-02-23T22:11:04;-17.27;62.42
60242;SHT30;46103;52.076;113.488;2024-02-23T22:14:08;-17.26;62.23
60242;SHT30;46103;52.076;113.488;2024-02-23T22:17:12;-17.26;62.26
60242;SHT30;46103;52.076;113.488;2024-02-23T22:20:15;-17.28;62.13
60242;SHT30;46103;52.076;113.488;2024-02-23T22:23:19;-17.30;62.24
60242;SHT30;46103;52.076;113.488;2024-02-23T22:26:23;-17.35;62.26
60242;SHT30;46103;52.076;113.488;2024-02-23T22:29:27;-17.26;62.25
60242;SHT30;46103;52.076;113.488;2024-02-23T22:32:32;-17.27;61.87
60242;SHT30;46103;52.076;113.488;2024-02-23T22:35:36;-17.27;61.75
60242;SHT30;46103;52.076;113.488;2024-02-23T22:38:39;-17.21;61.83
60242;SHT30;46103;52.076;113.488;2024-02-23T22:41:46;-17.09;61.25
60242;SHT30;46103;52.076;113.488;2024-02-23T22:44:50;-17.10;61.03
60242;SHT30;46103;52.076;113.488;2024-02-23T22:47:54;-17.11;60.78
60242;SHT30;46103;52.076;113.488;2024-02-23T22:50:58;-17.13;60.48
60242;SHT30;46103;52.076;113.488;2024-02-23T22:54:02;-17.13;60.59
60242;SHT30;46103;52.076;113.488;2024-02-23T22:57:06;-17.06;60.52
60242;SHT30;46103;52.076;113.488;2024-02-23T23:00:10;-17.18;60.34